createdAt,value
2023-01-17T00:00:00.519Z,0.01
2023-01-17T00:01:08.312Z,0.01
2023-01-17T00:02:00.487Z,0.01
2023-01-17T00:03:00.482Z,0.01
2023-01-17T00:04:00.849Z,-0.02
2023-01-17T00:05:00.453Z,-0.02
2023-01-17T00:06:02.872Z,-0.02
2023-01-17T00:07:00.524Z,-0.02
2023-01-17T00:08:00.563Z,-0.02
2023-01-17T00:09:00.446Z,-0.03
2023-01-17T00:10:01.356Z,-0.03
2023-01-17T00:11:00.477Z,-0.03
2023-01-17T00:12:00.472Z,-0.03
2023-01-17T00:13:01.590Z,-0.03
2023-01-17T00:14:00.446Z,-0.06
2023-01-17T00:15:00.806Z,-0.06
2023-01-17T00:16:00.499Z,-0.06
2023-01-17T00:17:00.501Z,-0.06
2023-01-17T00:18:00.452Z,-0.06
2023-01-17T00:19:00.465Z,-0.08
2023-01-17T00:20:00.475Z,-0.08
2023-01-17T00:21:00.456Z,-0.08
2023-01-17T00:22:00.454Z,-0.08
2023-01-17T00:23:00.517Z,-0.08
2023-01-17T00:24:00.482Z,-0.10
2023-01-17T00:25:00.541Z,-0.10
2023-01-17T00:26:00.482Z,-0.10
2023-01-17T00:27:00.450Z,-0.10
2023-01-17T00:28:00.569Z,-0.10
2023-01-17T00:29:00.452Z,-0.12
2023-01-17T00:30:00.454Z,-0.12
2023-01-17T00:31:00.986Z,-0.12
2023-01-17T00:32:00.453Z,-0.12
2023-01-17T00:33:00.462Z,-0.12
2023-01-17T00:34:00.473Z,-0.14
2023-01-17T00:35:00.457Z,-0.14
2023-01-17T00:36:00.898Z,-0.14
2023-01-17T00:37:00.455Z,-0.14
2023-01-17T00:38:00.468Z,-0.14
2023-01-17T00:39:00.479Z,-0.17
2023-01-17T00:40:00.478Z,-0.17
2023-01-17T00:41:01.982Z,-0.17
2023-01-17T00:42:00.455Z,-0.17
2023-01-17T00:43:00.851Z,-0.17
2023-01-17T00:44:00.476Z,-0.21
2023-01-17T00:45:00.479Z,-0.21
2023-01-17T00:46:00.470Z,-0.21
2023-01-17T00:47:00.476Z,-0.21
2023-01-17T00:48:00.449Z,-0.21
2023-01-17T00:49:00.563Z,-0.22
2023-01-17T00:50:00.466Z,-0.22
2023-01-17T00:51:01.849Z,-0.22
2023-01-17T00:52:00.499Z,-0.22
2023-01-17T00:53:03.975Z,-0.22
2023-01-17T00:54:00.474Z,-0.22
2023-01-17T00:55:00.472Z,-0.22
2023-01-17T00:56:01.308Z,-0.22
2023-01-17T00:57:00.874Z,-0.22
2023-01-17T00:58:04.916Z,-0.22
2023-01-17T00:59:00.481Z,-0.25
2023-01-17T01:00:00.467Z,-0.25
2023-01-17T01:01:04.093Z,-0.25
2023-01-17T01:02:00.628Z,-0.25
2023-01-17T01:03:00.474Z,-0.25
2023-01-17T01:04:00.473Z,-0.26
2023-01-17T01:05:00.492Z,-0.26
2023-01-17T01:06:03.041Z,-0.26
2023-01-17T01:07:00.469Z,-0.26
2023-01-17T01:08:00.757Z,-0.26
2023-01-17T01:09:00.464Z,-0.30
2023-01-17T01:10:00.481Z,-0.30
2023-01-17T01:11:03.289Z,-0.30
2023-01-17T01:12:00.462Z,-0.30
2023-01-17T01:13:00.447Z,-0.30
2023-01-17T01:14:01.029Z,-0.30
2023-01-17T01:15:00.473Z,-0.30
2023-01-17T01:16:02.288Z,-0.30
2023-01-17T01:17:00.484Z,-0.30
2023-01-17T01:18:08.234Z,-0.30
2023-01-17T01:19:00.573Z,-0.30
2023-01-17T01:20:00.485Z,-0.30
2023-01-17T01:21:02.017Z,-0.30
2023-01-17T01:22:00.470Z,-0.30
2023-01-17T01:23:04.109Z,-0.30
2023-01-17T01:24:00.517Z,-0.30
2023-01-17T01:25:00.503Z,-0.30
2023-01-17T01:26:01.817Z,-0.30
2023-01-17T01:27:00.498Z,-0.30
2023-01-17T01:28:02.541Z,-0.30
2023-01-17T01:29:00.446Z,-0.32
2023-01-17T01:30:00.579Z,-0.32
2023-01-17T01:31:01.364Z,-0.32
2023-01-17T01:32:00.470Z,-0.32
2023-01-17T01:33:06.498Z,-0.32
2023-01-17T01:34:00.451Z,-0.43
2023-01-17T01:35:00.473Z,-0.43
2023-01-17T01:36:00.503Z,-0.43
2023-01-17T01:37:00.444Z,-0.43
2023-01-17T01:38:00.896Z,-0.43
2023-01-17T01:39:00.499Z,-0.41
2023-01-17T01:40:00.552Z,-0.41
2023-01-17T01:41:00.540Z,-0.41
2023-01-17T01:42:00.460Z,-0.41
2023-01-17T01:43:00.480Z,-0.41
2023-01-17T01:44:00.448Z,-0.41
2023-01-17T01:45:00.625Z,-0.41
2023-01-17T01:46:00.564Z,-0.41
2023-01-17T01:47:00.606Z,-0.41
2023-01-17T01:48:02.970Z,-0.41
2023-01-17T01:49:03.685Z,-0.40
2023-01-17T01:50:02.539Z,-0.40
2023-01-17T01:51:03.440Z,-0.40
2023-01-17T01:52:01.454Z,-0.40
2023-01-17T01:53:01.600Z,-0.40
2023-01-17T01:54:05.120Z,-0.42
2023-01-17T01:55:04.027Z,-0.42
2023-01-17T01:56:00.843Z,-0.42
2023-01-17T01:57:02.338Z,-0.42
2023-01-17T01:58:03.084Z,-0.42
2023-01-17T01:59:02.855Z,-0.44
2023-01-17T02:00:06.555Z,-0.44
2023-01-17T02:01:00.883Z,-0.44
2023-01-17T02:02:00.509Z,-0.44
2023-01-17T02:03:04.436Z,-0.44
2023-01-17T02:04:01.265Z,-0.48
2023-01-17T02:05:02.427Z,-0.48
2023-01-17T02:06:03.218Z,-0.48
2023-01-17T02:07:10.390Z,-0.48
2023-01-17T02:08:01.908Z,-0.48
2023-01-17T02:09:04.684Z,-0.64
2023-01-17T02:10:01.492Z,-0.64
2023-01-17T02:11:01.036Z,-0.64
2023-01-17T02:12:01.206Z,-0.64
2023-01-17T02:13:00.980Z,-0.64
2023-01-17T02:14:00.557Z,-0.64
2023-01-17T02:15:01.181Z,-0.64
2023-01-17T02:16:03.904Z,-0.64
2023-01-17T02:17:07.987Z,-0.64
2023-01-17T02:18:01.459Z,-0.64
2023-01-17T02:19:00.449Z,-0.65
2023-01-17T02:20:10.385Z,-0.65
2023-01-17T02:21:10.386Z,-0.65
2023-01-17T02:22:10.368Z,-0.65
2023-01-17T02:23:00.431Z,-0.65
2023-01-17T02:24:10.357Z,-0.67
2023-01-17T02:25:03.747Z,-0.67
2023-01-17T02:26:10.393Z,-0.67
2023-01-17T02:27:03.410Z,-0.67
2023-01-17T02:28:03.748Z,-0.67
2023-01-17T02:29:00.447Z,-0.71
2023-01-17T02:30:10.384Z,-0.71
2023-01-17T02:31:07.314Z,-0.71
2023-01-17T02:32:09.926Z,-0.71
2023-01-17T02:33:00.485Z,-0.71
2023-01-17T02:34:09.297Z,-0.76
2023-01-17T02:35:10.393Z,-0.76
2023-01-17T02:36:08.029Z,-0.76
2023-01-17T02:37:05.095Z,-0.76
2023-01-17T02:38:05.420Z,-0.76
2023-01-17T02:39:01.456Z,-0.81
2023-01-17T02:40:10.376Z,-0.81
2023-01-17T02:41:03.056Z,-0.81
2023-01-17T02:42:03.833Z,-0.81
2023-01-17T02:43:04.292Z,-0.81
2023-01-17T02:44:00.800Z,-0.86
2023-01-17T02:45:01.268Z,-0.86
2023-01-17T02:46:00.513Z,-0.86
2023-01-17T02:47:00.451Z,-0.86
2023-01-17T02:48:00.456Z,-0.86
2023-01-17T02:49:00.525Z,-0.88
2023-01-17T02:50:04.251Z,-0.88
2023-01-17T02:51:10.368Z,-0.88
2023-01-17T02:52:10.374Z,-0.88
2023-01-17T02:53:01.454Z,-0.88
2023-01-17T02:54:10.376Z,-0.90
2023-01-17T02:55:01.446Z,-0.90
2023-01-17T02:56:01.476Z,-0.90
2023-01-17T02:57:09.726Z,-0.90
2023-01-17T02:58:07.317Z,-0.90
2023-01-17T02:59:00.438Z,-0.93
2023-01-17T03:00:01.497Z,-0.93
2023-01-17T03:01:07.937Z,-0.93
2023-01-17T03:02:01.624Z,-0.93
2023-01-17T03:03:09.584Z,-0.93
2023-01-17T03:04:10.394Z,-0.96
2023-01-17T03:05:01.470Z,-0.96
2023-01-17T03:06:04.993Z,-0.96
2023-01-17T03:07:04.063Z,-0.96
2023-01-17T03:08:00.984Z,-0.96
2023-01-17T03:09:01.301Z,-0.98
2023-01-17T03:10:01.981Z,-0.98
2023-01-17T03:11:00.497Z,-0.98
2023-01-17T03:12:02.355Z,-0.98
2023-01-17T03:13:01.942Z,-0.98
2023-01-17T03:14:00.467Z,-0.99
2023-01-17T03:15:00.482Z,-0.99
2023-01-17T03:16:02.237Z,-0.99
2023-01-17T03:17:00.644Z,-0.99
2023-01-17T03:18:02.801Z,-0.99
2023-01-17T03:19:00.618Z,-1.03
2023-01-17T03:20:00.491Z,-1.03
2023-01-17T03:21:00.446Z,-1.03
2023-01-17T03:22:00.475Z,-1.03
2023-01-17T03:23:00.497Z,-1.03
2023-01-17T03:24:00.502Z,-1.04
2023-01-17T03:25:00.459Z,-1.04
2023-01-17T03:26:00.495Z,-1.04
2023-01-17T03:27:00.459Z,-1.04
2023-01-17T03:28:00.477Z,-1.04
2023-01-17T03:29:00.507Z,-1.06
2023-01-17T03:30:00.513Z,-1.06
2023-01-17T03:31:00.548Z,-1.06
2023-01-17T03:32:00.480Z,-1.06
2023-01-17T03:33:00.455Z,-1.06
2023-01-17T03:34:00.469Z,-1.08
2023-01-17T03:35:00.519Z,-1.08
2023-01-17T03:36:00.453Z,-1.08
2023-01-17T03:37:00.549Z,-1.08
2023-01-17T03:38:00.546Z,-1.08
2023-01-17T03:39:00.454Z,-1.15
2023-01-17T03:40:00.463Z,-1.15
2023-01-17T03:41:00.464Z,-1.15
2023-01-17T03:42:00.453Z,-1.15
2023-01-17T03:43:00.476Z,-1.15
2023-01-17T03:44:00.471Z,-1.16
2023-01-17T03:45:00.479Z,-1.16
2023-01-17T03:46:01.771Z,-1.16
2023-01-17T03:47:00.487Z,-1.16
2023-01-17T03:48:00.516Z,-1.16
2023-01-17T03:49:00.451Z,-1.16
2023-01-17T03:50:00.571Z,-1.16
2023-01-17T03:51:00.449Z,-1.16
2023-01-17T03:52:00.483Z,-1.16
2023-01-17T03:53:00.458Z,-1.16
2023-01-17T03:54:00.470Z,-1.18
2023-01-17T03:55:00.686Z,-1.18
2023-01-17T03:56:00.443Z,-1.18
2023-01-17T03:57:00.576Z,-1.18
2023-01-17T03:58:00.469Z,-1.18
2023-01-17T03:59:00.620Z,-1.29
2023-01-17T04:00:00.468Z,-1.29
2023-01-17T04:01:00.579Z,-1.29
2023-01-17T04:02:00.509Z,-1.29
2023-01-17T04:03:00.467Z,-1.29
2023-01-17T04:04:00.482Z,-1.29
2023-01-17T04:05:00.534Z,-1.29
2023-01-17T04:06:00.547Z,-1.29
2023-01-17T04:07:00.489Z,-1.29
2023-01-17T04:08:00.465Z,-1.29
2023-01-17T04:09:00.451Z,-1.31
2023-01-17T04:10:00.488Z,-1.31
2023-01-17T04:11:00.500Z,-1.31
2023-01-17T04:12:00.831Z,-1.31
2023-01-17T04:13:00.498Z,-1.31
2023-01-17T04:14:00.455Z,-1.52
2023-01-17T04:15:00.488Z,-1.52
2023-01-17T04:16:00.457Z,-1.52
2023-01-17T04:17:00.485Z,-1.52
2023-01-17T04:18:00.519Z,-1.52
2023-01-17T04:19:00.468Z,-1.58
2023-01-17T04:20:00.496Z,-1.58
2023-01-17T04:21:00.493Z,-1.58
2023-01-17T04:22:00.467Z,-1.58
2023-01-17T04:23:00.873Z,-1.58
2023-01-17T04:24:00.492Z,-1.68
2023-01-17T04:25:00.449Z,-1.68
2023-01-17T04:26:00.466Z,-1.68
2023-01-17T04:27:00.476Z,-1.68
2023-01-17T04:28:00.885Z,-1.68
2023-01-17T04:29:00.560Z,-1.69
2023-01-17T04:30:00.463Z,-1.69
2023-01-17T04:31:00.567Z,-1.69
2023-01-17T04:32:00.486Z,-1.69
2023-01-17T04:33:00.463Z,-1.69
2023-01-17T04:34:00.465Z,-1.63
2023-01-17T04:35:00.483Z,-1.63
2023-01-17T04:36:00.448Z,-1.63
2023-01-17T04:37:00.454Z,-1.63
2023-01-17T04:38:00.446Z,-1.63
2023-01-17T04:39:00.450Z,-1.63
2023-01-17T04:40:00.525Z,-1.63
2023-01-17T04:41:00.458Z,-1.63
2023-01-17T04:42:00.459Z,-1.63
2023-01-17T04:43:00.502Z,-1.63
2023-01-17T04:44:00.571Z,-1.63
2023-01-17T04:45:00.466Z,-1.63
2023-01-17T04:46:00.565Z,-1.63
2023-01-17T04:47:00.481Z,-1.63
2023-01-17T04:48:02.541Z,-1.63
2023-01-17T04:49:00.466Z,-1.66
2023-01-17T04:50:00.478Z,-1.66
2023-01-17T04:51:01.098Z,-1.66
2023-01-17T04:52:00.458Z,-1.66
2023-01-17T04:53:00.477Z,-1.66
2023-01-17T04:54:00.515Z,-1.70
2023-01-17T04:55:00.751Z,-1.70
2023-01-17T04:56:00.449Z,-1.70
2023-01-17T04:57:00.515Z,-1.70
2023-01-17T04:58:00.468Z,-1.70
2023-01-17T04:59:00.467Z,-1.71
2023-01-17T05:00:00.477Z,-1.71
2023-01-17T05:01:01.468Z,-1.71
2023-01-17T05:02:00.783Z,-1.71
2023-01-17T05:03:00.584Z,-1.71
2023-01-17T05:04:00.470Z,-1.75
2023-01-17T05:05:00.557Z,-1.75
2023-01-17T05:06:00.543Z,-1.75
2023-01-17T05:07:00.615Z,-1.75
2023-01-17T05:08:00.490Z,-1.75
2023-01-17T05:09:00.473Z,-1.77
2023-01-17T05:10:00.598Z,-1.77
2023-01-17T05:11:00.450Z,-1.77
2023-01-17T05:12:00.477Z,-1.77
2023-01-17T05:13:00.484Z,-1.77
2023-01-17T05:14:00.527Z,-1.91
2023-01-17T05:15:00.630Z,-1.91
2023-01-17T05:16:00.577Z,-1.91
2023-01-17T05:17:00.723Z,-1.91
2023-01-17T05:18:00.463Z,-1.91
2023-01-17T05:19:00.489Z,-1.99
2023-01-17T05:20:00.528Z,-1.99
2023-01-17T05:21:01.141Z,-1.99
2023-01-17T05:22:00.457Z,-1.99
2023-01-17T05:23:00.483Z,-1.99
2023-01-17T05:24:00.456Z,-2.01
2023-01-17T05:25:00.458Z,-2.01
2023-01-17T05:26:00.464Z,-2.01
2023-01-17T05:27:00.501Z,-2.01
2023-01-17T05:28:00.519Z,-2.01
2023-01-17T05:29:00.453Z,-1.96
2023-01-17T05:30:00.462Z,-1.96
2023-01-17T05:31:00.523Z,-1.96
2023-01-17T05:32:00.505Z,-1.96
2023-01-17T05:33:00.874Z,-1.96
2023-01-17T05:34:00.479Z,-2.00
2023-01-17T05:35:00.464Z,-2.00
2023-01-17T05:36:00.445Z,-2.00
2023-01-17T05:37:00.527Z,-2.00
2023-01-17T05:38:00.902Z,-2.00
2023-01-17T05:39:00.599Z,-2.10
2023-01-17T05:40:00.518Z,-2.10
2023-01-17T05:41:01.034Z,-2.10
2023-01-17T05:42:00.469Z,-2.10
2023-01-17T05:43:01.044Z,-2.10
2023-01-17T05:44:00.443Z,-2.07
2023-01-17T05:45:00.467Z,-2.07
2023-01-17T05:46:00.485Z,-2.07
2023-01-17T05:47:00.469Z,-2.07
2023-01-17T05:48:00.992Z,-2.07
2023-01-17T05:49:00.500Z,-2.07
2023-01-17T05:50:00.455Z,-2.07
2023-01-17T05:51:00.448Z,-2.07
2023-01-17T05:52:00.448Z,-2.07
2023-01-17T05:53:02.247Z,-2.07
2023-01-17T05:54:00.443Z,-2.08
2023-01-17T05:55:00.464Z,-2.08
2023-01-17T05:56:00.457Z,-2.08
2023-01-17T05:57:00.454Z,-2.08
2023-01-17T05:58:00.866Z,-2.08
2023-01-17T05:59:00.481Z,-2.11
2023-01-17T06:00:00.543Z,-2.11
2023-01-17T06:01:00.572Z,-2.11
2023-01-17T06:02:00.453Z,-2.11
2023-01-17T06:03:00.511Z,-2.11
2023-01-17T06:04:00.477Z,-2.25
2023-01-17T06:05:03.282Z,-2.25
2023-01-17T06:06:00.455Z,-2.25
2023-01-17T06:07:00.437Z,-2.25
2023-01-17T06:08:00.460Z,-2.25
2023-01-17T06:09:00.612Z,-2.37
2023-01-17T06:10:00.458Z,-2.37
2023-01-17T06:11:00.518Z,-2.37
2023-01-17T06:12:00.491Z,-2.37
2023-01-17T06:13:01.602Z,-2.37
2023-01-17T06:14:00.519Z,-2.35
2023-01-17T06:15:00.448Z,-2.35
2023-01-17T06:16:01.062Z,-2.35
2023-01-17T06:17:00.449Z,-2.35
2023-01-17T06:18:04.505Z,-2.35
2023-01-17T06:19:00.458Z,-2.51
2023-01-17T06:20:00.489Z,-2.51
2023-01-17T06:21:00.506Z,-2.51
2023-01-17T06:22:00.495Z,-2.51
2023-01-17T06:23:02.726Z,-2.51
2023-01-17T06:24:02.219Z,-2.47
2023-01-17T06:25:00.482Z,-2.47
2023-01-17T06:26:01.462Z,-2.47
2023-01-17T06:27:00.457Z,-2.47
2023-01-17T06:28:00.723Z,-2.47
2023-01-17T06:29:00.471Z,-2.39
2023-01-17T06:30:00.548Z,-2.39
2023-01-17T06:31:04.390Z,-2.39
2023-01-17T06:32:01.761Z,-2.39
2023-01-17T06:33:00.654Z,-2.39
2023-01-17T06:34:01.025Z,-2.37
2023-01-17T06:35:00.460Z,-2.37
2023-01-17T06:36:00.461Z,-2.37
2023-01-17T06:37:00.486Z,-2.37
2023-01-17T06:38:00.627Z,-2.37
2023-01-17T06:39:00.507Z,-2.37
2023-01-17T06:40:00.476Z,-2.37
2023-01-17T06:41:02.812Z,-2.37
2023-01-17T06:42:00.780Z,-2.37
2023-01-17T06:43:01.594Z,-2.37
2023-01-17T06:44:00.523Z,-2.43
2023-01-17T06:45:00.464Z,-2.43
2023-01-17T06:46:00.789Z,-2.43
2023-01-17T06:47:00.472Z,-2.43
2023-01-17T06:48:00.718Z,-2.43
2023-01-17T06:49:00.498Z,-2.59
2023-01-17T06:50:00.488Z,-2.59
2023-01-17T06:51:00.445Z,-2.59
2023-01-17T06:52:00.476Z,-2.59
2023-01-17T06:53:01.753Z,-2.59
2023-01-17T06:54:00.513Z,-2.69
2023-01-17T06:55:00.957Z,-2.69
2023-01-17T06:56:00.555Z,-2.69
2023-01-17T06:57:00.454Z,-2.69
2023-01-17T06:58:00.628Z,-2.69
2023-01-17T06:59:00.528Z,-2.63
2023-01-17T07:00:00.568Z,-2.63
2023-01-17T07:01:08.412Z,-2.63
2023-01-17T07:02:00.473Z,-2.63
2023-01-17T07:03:00.711Z,-2.63
2023-01-17T07:04:00.558Z,-2.59
2023-01-17T07:05:00.458Z,-2.59
2023-01-17T07:06:01.244Z,-2.59
2023-01-17T07:07:00.689Z,-2.59
2023-01-17T07:08:00.447Z,-2.59
2023-01-17T07:09:00.458Z,-2.58
2023-01-17T07:10:00.467Z,-2.58
2023-01-17T07:11:01.766Z,-2.58
2023-01-17T07:12:00.680Z,-2.58
2023-01-17T07:13:00.486Z,-2.58
2023-01-17T07:14:00.496Z,-2.59
2023-01-17T07:15:00.461Z,-2.59
2023-01-17T07:16:01.039Z,-2.59
2023-01-17T07:17:00.677Z,-2.59
2023-01-17T07:18:00.908Z,-2.59
2023-01-17T07:19:00.461Z,-2.59
2023-01-17T07:20:00.592Z,-2.59
2023-01-17T07:21:00.481Z,-2.59
2023-01-17T07:22:00.466Z,-2.59
2023-01-17T07:23:00.503Z,-2.59
2023-01-17T07:24:00.519Z,-2.58
2023-01-17T07:25:00.464Z,-2.58
2023-01-17T07:26:00.479Z,-2.58
2023-01-17T07:27:00.447Z,-2.58
2023-01-17T07:28:00.487Z,-2.58
2023-01-17T07:29:00.531Z,-2.58
2023-01-17T07:30:00.548Z,-2.58
2023-01-17T07:31:04.361Z,-2.58
2023-01-17T07:32:00.497Z,-2.58
2023-01-17T07:33:00.447Z,-2.58
2023-01-17T07:34:00.473Z,-2.70
2023-01-17T07:35:00.470Z,-2.70
2023-01-17T07:36:05.112Z,-2.70
2023-01-17T07:37:00.453Z,-2.70
2023-01-17T07:38:00.462Z,-2.70
2023-01-17T07:39:00.742Z,-2.71
2023-01-17T07:40:00.493Z,-2.71
2023-01-17T07:41:00.787Z,-2.71
2023-01-17T07:42:00.463Z,-2.71
2023-01-17T07:43:00.958Z,-2.71
2023-01-17T07:44:00.450Z,-2.67
2023-01-17T07:45:00.456Z,-2.67
2023-01-17T07:46:02.127Z,-2.67
2023-01-17T07:47:00.468Z,-2.67
2023-01-17T07:48:00.455Z,-2.67
2023-01-17T07:49:01.041Z,-2.72
2023-01-17T07:50:00.492Z,-2.72
2023-01-17T07:51:00.549Z,-2.72
2023-01-17T07:52:00.476Z,-2.72
2023-01-17T07:53:00.574Z,-2.72
2023-01-17T07:54:00.448Z,-2.70
2023-01-17T07:55:00.540Z,-2.70
2023-01-17T07:56:01.341Z,-2.70
2023-01-17T07:57:00.943Z,-2.70
2023-01-17T07:58:02.866Z,-2.70
2023-01-17T07:59:00.477Z,-2.70
2023-01-17T08:00:00.509Z,-2.70
2023-01-17T08:01:01.346Z,-2.70
2023-01-17T08:02:00.616Z,-2.70
2023-01-17T08:03:00.458Z,-2.70
2023-01-17T08:04:00.542Z,-2.70
2023-01-17T08:05:00.451Z,-2.70
2023-01-17T08:06:00.493Z,-2.70
2023-01-17T08:07:00.695Z,-2.70
2023-01-17T08:08:00.473Z,-2.70
2023-01-17T08:09:00.457Z,-2.72
2023-01-17T08:10:00.457Z,-2.72
2023-01-17T08:11:00.456Z,-2.72
2023-01-17T08:12:00.519Z,-2.72
2023-01-17T08:13:00.504Z,-2.72
2023-01-17T08:14:00.515Z,-2.73
2023-01-17T08:15:00.454Z,-2.73
2023-01-17T08:16:00.554Z,-2.73
2023-01-17T08:17:10.383Z,-2.73
2023-01-17T08:18:00.454Z,-2.73
2023-01-17T08:19:00.466Z,-2.71
2023-01-17T08:20:00.470Z,-2.71
2023-01-17T08:21:00.457Z,-2.71
2023-01-17T08:22:00.474Z,-2.71
2023-01-17T08:23:00.557Z,-2.71
2023-01-17T08:24:00.491Z,-2.68
2023-01-17T08:25:00.510Z,-2.68
2023-01-17T08:26:00.871Z,-2.68
2023-01-17T08:27:00.464Z,-2.68
2023-01-17T08:28:00.466Z,-2.68
2023-01-17T08:29:00.627Z,-2.71
2023-01-17T08:30:00.637Z,-2.71
2023-01-17T08:31:08.332Z,-2.71
2023-01-17T08:32:00.468Z,-2.71
2023-01-17T08:33:00.634Z,-2.71
2023-01-17T08:34:00.687Z,-2.70
2023-01-17T08:35:00.467Z,-2.70
2023-01-17T08:36:00.537Z,-2.70
2023-01-17T08:37:00.465Z,-2.70
2023-01-17T08:38:00.448Z,-2.70
2023-01-17T08:39:00.463Z,-2.73
2023-01-17T08:40:00.510Z,-2.73
2023-01-17T08:41:00.533Z,-2.73
2023-01-17T08:42:00.483Z,-2.73
2023-01-17T08:43:00.714Z,-2.73
2023-01-17T08:44:01.073Z,-2.75
2023-01-17T08:45:00.513Z,-2.75
2023-01-17T08:46:00.548Z,-2.75
2023-01-17T08:47:00.607Z,-2.75
2023-01-17T08:48:00.506Z,-2.75
2023-01-17T08:49:00.453Z,-2.73
2023-01-17T08:50:00.572Z,-2.73
2023-01-17T08:51:01.279Z,-2.73
2023-01-17T08:52:00.498Z,-2.73
2023-01-17T08:53:01.370Z,-2.73
2023-01-17T08:54:00.482Z,-2.79
2023-01-17T08:55:00.775Z,-2.79
2023-01-17T08:56:00.892Z,-2.79
2023-01-17T08:57:00.462Z,-2.79
2023-01-17T08:58:00.471Z,-2.79
2023-01-17T08:59:00.511Z,-2.74
2023-01-17T09:00:00.488Z,-2.74
2023-01-17T09:01:01.264Z,-2.74
2023-01-17T09:02:00.705Z,-2.74
2023-01-17T09:03:00.475Z,-2.74
2023-01-17T09:04:00.520Z,-2.77
2023-01-17T09:05:00.798Z,-2.77
2023-01-17T09:06:02.245Z,-2.77
2023-01-17T09:07:00.508Z,-2.77
2023-01-17T09:08:00.458Z,-2.77
2023-01-17T09:09:00.452Z,-2.74
2023-01-17T09:10:00.613Z,-2.74
2023-01-17T09:11:02.767Z,-2.74
2023-01-17T09:12:00.459Z,-2.74
2023-01-17T09:13:00.539Z,-2.74
2023-01-17T09:14:00.494Z,-2.71
2023-01-17T09:15:00.451Z,-2.71
2023-01-17T09:16:00.572Z,-2.71
2023-01-17T09:17:00.655Z,-2.71
2023-01-17T09:18:00.461Z,-2.71
2023-01-17T09:19:00.550Z,-2.70
2023-01-17T09:20:00.458Z,-2.70
2023-01-17T09:21:10.400Z,-2.70
2023-01-17T09:22:00.930Z,-2.70
2023-01-17T09:23:01.910Z,-2.70
2023-01-17T09:24:00.479Z,-2.61
2023-01-17T09:25:00.445Z,-2.61
2023-01-17T09:26:00.453Z,-2.61
2023-01-17T09:27:00.462Z,-2.61
2023-01-17T09:28:00.485Z,-2.61
2023-01-17T09:29:00.519Z,-2.55
2023-01-17T09:30:00.468Z,-2.55
2023-01-17T09:31:05.012Z,-2.55
2023-01-17T09:32:00.505Z,-2.55
2023-01-17T09:33:00.443Z,-2.55
2023-01-17T09:34:00.506Z,-2.49
2023-01-17T09:35:00.477Z,-2.49
2023-01-17T09:36:00.854Z,-2.49
2023-01-17T09:37:00.459Z,-2.49
2023-01-17T09:38:00.469Z,-2.49
2023-01-17T09:39:01.241Z,-2.44
2023-01-17T09:40:00.524Z,-2.44
2023-01-17T09:41:01.198Z,-2.44
2023-01-17T09:42:10.410Z,-2.44
2023-01-17T09:43:04.163Z,-2.44
2023-01-17T09:44:03.275Z,-2.39
2023-01-17T09:45:00.508Z,-2.39
2023-01-17T09:46:00.660Z,-2.39
2023-01-17T09:47:10.396Z,-2.39
2023-01-17T09:48:04.809Z,-2.39
2023-01-17T09:49:03.985Z,-2.34
2023-01-17T09:50:06.882Z,-2.34
2023-01-17T09:51:07.068Z,-2.34
2023-01-17T09:52:01.022Z,-2.34
2023-01-17T09:53:04.584Z,-2.34
2023-01-17T09:54:00.453Z,-2.28
2023-01-17T09:55:00.463Z,-2.28
2023-01-17T09:56:10.377Z,-2.28
2023-01-17T09:57:01.445Z,-2.28
2023-01-17T09:58:06.143Z,-2.28
2023-01-17T09:59:10.387Z,-2.20
2023-01-17T10:00:07.890Z,-2.20
2023-01-17T10:01:10.476Z,-2.20
2023-01-17T10:02:10.536Z,-2.20
2023-01-17T10:03:10.632Z,-2.20
2023-01-17T10:04:10.029Z,-2.14
2023-01-17T10:05:03.831Z,-2.14
2023-01-17T10:06:01.471Z,-2.14
2023-01-17T10:07:10.395Z,-2.14
2023-01-17T10:08:10.376Z,-2.14
2023-01-17T10:09:00.436Z,-2.02
2023-01-17T10:10:10.505Z,-2.02
2023-01-17T10:11:10.393Z,-2.02
2023-01-17T10:12:01.450Z,-2.02
2023-01-17T10:13:08.049Z,-2.02
2023-01-17T10:14:01.497Z,-1.94
2023-01-17T10:15:10.383Z,-1.94
2023-01-17T10:16:08.420Z,-1.94
2023-01-17T10:17:05.960Z,-1.94
2023-01-17T10:18:01.458Z,-1.94
2023-01-17T10:19:10.401Z,-1.86
2023-01-17T10:20:10.377Z,-1.86
2023-01-17T10:21:01.458Z,-1.86
2023-01-17T10:22:00.499Z,-1.86
2023-01-17T10:23:10.946Z,-1.86
2023-01-17T10:24:01.463Z,-1.76
2023-01-17T10:25:10.385Z,-1.76
2023-01-17T10:26:02.101Z,-1.76
2023-01-17T10:27:01.093Z,-1.76
2023-01-17T10:28:10.396Z,-1.76
2023-01-17T10:29:03.175Z,-1.64
2023-01-17T10:30:02.423Z,-1.64
2023-01-17T10:31:06.779Z,-1.64
2023-01-17T10:32:01.258Z,-1.64
2023-01-17T10:33:03.356Z,-1.64
2023-01-17T10:34:10.440Z,-1.52
2023-01-17T10:35:04.374Z,-1.52
2023-01-17T10:36:04.614Z,-1.52
2023-01-17T10:37:05.085Z,-1.52
2023-01-17T10:38:02.946Z,-1.52
2023-01-17T10:39:03.582Z,-1.42
2023-01-17T10:40:10.453Z,-1.42
2023-01-17T10:41:05.147Z,-1.42
2023-01-17T10:42:05.817Z,-1.42
2023-01-17T10:43:03.839Z,-1.42
2023-01-17T10:44:06.343Z,-1.32
2023-01-17T10:45:04.622Z,-1.32
2023-01-17T10:46:01.147Z,-1.32
2023-01-17T10:47:00.445Z,-1.32
2023-01-17T10:48:10.115Z,-1.32
2023-01-17T10:49:01.101Z,-1.22
2023-01-17T10:50:01.652Z,-1.22
2023-01-17T10:51:07.054Z,-1.22
2023-01-17T10:52:10.385Z,-1.22
2023-01-17T10:53:05.063Z,-1.22
2023-01-17T10:54:10.398Z,-1.09
2023-01-17T10:55:10.382Z,-1.09
2023-01-17T10:56:00.615Z,-1.09
2023-01-17T10:57:00.570Z,-1.09
2023-01-17T10:58:01.861Z,-1.09
2023-01-17T10:59:10.431Z,-1.00
2023-01-17T11:00:00.537Z,-1.00
2023-01-17T11:01:01.529Z,-1.00
2023-01-17T11:02:01.019Z,-1.00
2023-01-17T11:03:00.687Z,-1.00
2023-01-17T11:04:00.527Z,-0.89
2023-01-17T11:05:01.916Z,-0.89
2023-01-17T11:06:10.425Z,-0.89
2023-01-17T11:07:10.401Z,-0.89
2023-01-17T11:08:02.762Z,-0.89
2023-01-17T11:09:00.564Z,-0.75
2023-01-17T11:10:00.468Z,-0.75
2023-01-17T11:11:02.927Z,-0.75
2023-01-17T11:12:00.516Z,-0.75
2023-01-17T11:13:00.701Z,-0.75
2023-01-17T11:14:04.315Z,-0.62
2023-01-17T11:15:04.419Z,-0.62
2023-01-17T11:16:02.857Z,-0.62
2023-01-17T11:17:02.156Z,-0.62
2023-01-17T11:18:01.922Z,-0.62
2023-01-17T11:19:10.458Z,-0.53
2023-01-17T11:20:10.459Z,-0.53
2023-01-17T11:21:10.457Z,-0.53
2023-01-17T11:22:02.459Z,-0.53
2023-01-17T11:23:04.395Z,-0.53
2023-01-17T11:24:08.150Z,-0.47
2023-01-17T11:25:00.607Z,-0.47
2023-01-17T11:26:01.725Z,-0.47
2023-01-17T11:27:01.410Z,-0.47
2023-01-17T11:28:02.862Z,-0.47
2023-01-17T11:29:10.457Z,-0.37
2023-01-17T11:30:03.057Z,-0.37
2023-01-17T11:31:01.615Z,-0.37
2023-01-17T11:32:10.504Z,-0.37
2023-01-17T11:33:02.247Z,-0.37
2023-01-17T11:34:10.474Z,-0.28
2023-01-17T11:35:04.987Z,-0.28
2023-01-17T11:36:00.492Z,-0.28
2023-01-17T11:37:08.993Z,-0.28
2023-01-17T11:38:01.447Z,-0.28
2023-01-17T11:39:10.453Z,-0.16
2023-01-17T11:40:08.646Z,-0.16
2023-01-17T11:41:07.731Z,-0.16
2023-01-17T11:42:04.575Z,-0.16
2023-01-17T11:43:10.446Z,-0.16
2023-01-17T11:44:01.332Z,-0.07
2023-01-17T11:45:10.411Z,-0.07
2023-01-17T11:46:10.486Z,-0.07
2023-01-17T11:47:10.432Z,-0.07
2023-01-17T11:48:07.915Z,-0.07
2023-01-17T11:49:00.662Z,0.03
2023-01-17T11:50:00.538Z,0.03
2023-01-17T11:51:01.583Z,0.03
2023-01-17T11:52:06.579Z,0.03
2023-01-17T11:53:06.254Z,0.03
2023-01-17T11:54:05.954Z,0.25
2023-01-17T11:55:00.478Z,0.25
2023-01-17T11:56:04.857Z,0.25
2023-01-17T11:57:01.079Z,0.25
2023-01-17T11:58:00.512Z,0.25
2023-01-17T11:59:10.435Z,0.49
2023-01-17T12:00:01.460Z,0.49
2023-01-17T12:01:10.505Z,0.49
2023-01-17T12:02:10.459Z,0.49
2023-01-17T12:03:01.461Z,0.49
2023-01-17T12:04:10.428Z,0.60
2023-01-17T12:05:00.540Z,0.60
2023-01-17T12:06:06.842Z,0.60
2023-01-17T12:07:10.425Z,0.60
2023-01-17T12:08:08.059Z,0.60
2023-01-17T12:09:10.448Z,0.67
2023-01-17T12:10:10.413Z,0.67
2023-01-17T12:11:08.674Z,0.67
2023-01-17T12:12:04.435Z,0.67
2023-01-17T12:13:00.451Z,0.67
2023-01-17T12:14:03.724Z,0.82
2023-01-17T12:15:01.449Z,0.82
2023-01-17T12:16:00.454Z,0.82
2023-01-17T12:17:10.444Z,0.82
2023-01-17T12:18:10.445Z,0.82
2023-01-17T12:19:01.461Z,0.91
2023-01-17T12:20:01.861Z,0.91
2023-01-17T12:21:10.447Z,0.91
2023-01-17T12:22:10.438Z,0.91
2023-01-17T12:23:00.436Z,0.91
2023-01-17T12:24:10.462Z,0.96
2023-01-17T12:25:00.441Z,0.96
2023-01-17T12:26:00.453Z,0.96
2023-01-17T12:27:00.440Z,0.96
2023-01-17T12:28:07.894Z,0.96
2023-01-17T12:29:10.433Z,1.04
2023-01-17T12:30:10.460Z,1.04
2023-01-17T12:31:00.503Z,1.04
2023-01-17T12:32:00.459Z,1.04
2023-01-17T12:33:10.395Z,1.04
2023-01-17T12:34:10.384Z,1.18
2023-01-17T12:35:10.442Z,1.18
2023-01-17T12:36:02.487Z,1.18
2023-01-17T12:37:10.376Z,1.18
2023-01-17T12:38:05.284Z,1.18
2023-01-17T12:39:04.655Z,1.30
2023-01-17T12:40:03.129Z,1.30
2023-01-17T12:41:10.379Z,1.30
2023-01-17T12:42:03.257Z,1.30
2023-01-17T12:43:00.444Z,1.30
2023-01-17T12:44:00.778Z,1.37
2023-01-17T12:45:04.464Z,1.37
2023-01-17T12:46:04.455Z,1.37
2023-01-17T12:47:02.689Z,1.37
2023-01-17T12:48:04.603Z,1.37
2023-01-17T12:49:03.230Z,1.39
2023-01-17T12:50:01.448Z,1.39
2023-01-17T12:51:04.551Z,1.39
2023-01-17T12:52:10.407Z,1.39
2023-01-17T12:53:10.383Z,1.39
2023-01-17T12:54:10.387Z,1.48